sensor_id;sensor_type;location;lat;lon;timestamp;temperature;humidity
5592;DHT22;2818;49.790;9.958;2023-01-04T00:01:16;5.70;91.90
5592;DHT22;2818;49.790;9.958;2023-01-04T00:03:44;5.70;93.10
5592;DHT22;2818;49.790;9.958;2023-01-04T00:06:13;5.60;94.30
5592;DHT22;2818;49.790;9.958;2023-01-04T00:08:40;5.60;95.60
5592;DHT22;2818;49.790;9.958;2023-01-04T00:11:15;5.60;96.40
5592;DHT22;2818;49.790;9.958;2023-01-04T00:13:45;5.50;99.80
5592;DHT22;2818;49.790;9.958;2023-01-04T00:16:14;5.50;99.90
5592;DHT22;2818;49.790;9.958;2023-01-04T00:18:42;5.50;99.90
5592;DHT22;2818;49.790;9.958;2023-01-04T00:21:21;5.50;99.90
5592;DHT22;2818;49.790;9.958;2023-01-04T00:23:50;5.40;99.90
5592;DHT22;2818;49.790;9.958;2023-01-04T00:26:22;5.30;99.90
5592;DHT22;2818;49.790;9.958;2023-01-04T00:29:03;5.30;99.90
5592;DHT22;2818;49.790;9.958;2023-01-04T00:31:31;5.30;99.90
5592;DHT22;2818;49.790;9.958;2023-01-04T00:34:00;5.20;99.90
5592;DHT22;2818;49.790;9.958;2023-01-04T00:36:28;5.20;99.90
5592;DHT22;2818;49.790;9.958;2023-01-04T00:38:58;5.20;99.90
5592;DHT22;2818;49.790;9.958;2023-01-04T00:41:42;5.20;99.90
5592;DHT22;2818;49.790;9.958;2023-01-04T00:44:27;5.20;99.90
5592;DHT22;2818;49.790;9.958;2023-01-04T00:46:54;5.10;99.90
5592;DHT22;2818;49.790;9.958;2023-01-04T00:49:21;5.10;99.90
5592;DHT22;2818;49.790;9.958;2023-01-04T00:51:48;5.10;99.90
5592;DHT22;2818;49.790;9.958;2023-01-04T00:54:16;5.10;99.90
5592;DHT22;2818;49.790;9.958;2023-01-04T00:56:43;5.10;99.90
5592;DHT22;2818;49.790;9.958;2023-01-04T00:59:12;5.10;99.90
5592;DHT22;2818;49.790;9.958;2023-01-04T01:01:40;5.00;99.90
5592;DHT22;2818;49.790;9.958;2023-01-04T01:04:10;5.00;99.90
5592;DHT22;2818;49.790;9.958;2023-01-04T01:06:38;5.00;99.90
5592;DHT22;2818;49.790;9.958;2023-01-04T01:09:05;5.00;99.90
5592;DHT22;2818;49.790;9.958;2023-01-04T01:11:32;5.00;99.90
5592;DHT22;2818;49.790;9.958;2023-01-04T01:14:02;5.00;99.90
5592;DHT22;2818;49.790;9.958;2023-01-04T01:16:29;5.00;99.90
5592;DHT22;2818;49.790;9.958;2023-01-04T01:19:17;4.90;99.90
5592;DHT22;2818;49.790;9.958;2023-01-04T01:21:43;4.90;99.90
5592;DHT22;2818;49.790;9.958;2023-01-04T01:24:15;4.90;99.90
5592;DHT22;2818;49.790;9.958;2023-01-04T01:26:42;4.90;99.90
5592;DHT22;2818;49.790;9.958;2023-01-04T01:29:09;4.80;99.90
5592;DHT22;2818;49.790;9.958;2023-01-04T01:31:36;4.90;99.90
5592;DHT22;2818;49.790;9.958;2023-01-04T01:34:03;4.90;99.90
5592;DHT22;2818;49.790;9.958;2023-01-04T01:36:30;4.90;99.90
5592;DHT22;2818;49.790;9.958;2023-01-04T01:38:58;4.80;99.90
5592;DHT22;2818;49.790;9.958;2023-01-04T01:41:27;4.80;99.90
5592;DHT22;2818;49.790;9.958;2023-01-04T01:49:01;4.80;99.90
5592;DHT22;2818;49.790;9.958;2023-01-04T01:51:30;4.80;99.90
5592;DHT22;2818;49.790;9.958;2023-01-04T01:54:08;4.80;99.90
5592;DHT22;2818;49.790;9.958;2023-01-04T01:56:37;4.80;99.90
5592;DHT22;2818;49.790;9.958;2023-01-04T01:59:06;4.80;99.90
5592;DHT22;2818;49.790;9.958;2023-01-04T02:01:34;4.80;99.90
5592;DHT22;2818;49.790;9.958;2023-01-04T02:04:03;4.80;99.90
5592;DHT22;2818;49.790;9.958;2023-01-04T02:06:37;4.80;99.90
5592;DHT22;2818;49.790;9.958;2023-01-04T02:09:05;4.90;99.90
5592;DHT22;2818;49.790;9.958;2023-01-04T02:11:32;4.90;99.90
5592;DHT22;2818;49.790;9.958;2023-01-04T02:14:01;4.90;99.90
5592;DHT22;2818;49.790;9.958;2023-01-04T02:38:25;4.90;99.90
5592;DHT22;2818;49.790;9.958;2023-01-04T02:41:31;4.90;99.90
5592;DHT22;2818;49.790;9.958;2023-01-04T02:44:13;4.90;99.90
5592;DHT22;2818;49.790;9.958;2023-01-04T02:47:03;4.90;99.90
5592;DHT22;2818;49.790;9.958;2023-01-04T02:49:32;4.90;99.90
5592;DHT22;2818;49.790;9.958;2023-01-04T02:52:18;4.90;99.90
5592;DHT22;2818;49.790;9.958;2023-01-04T02:54:47;4.90;99.90
5592;DHT22;2818;49.790;9.958;2023-01-04T03:08:46;4.90;99.90
5592;DHT22;2818;49.790;9.958;2023-01-04T03:11:16;4.90;99.90
5592;DHT22;2818;49.790;9.958;2023-01-04T03:14:15;4.80;99.90
5592;DHT22;2818;49.790;9.958;2023-01-04T03:17:02;4.80;99.90
5592;DHT22;2818;49.790;9.958;2023-01-04T03:19:33;4.80;99.90
5592;DHT22;2818;49.790;9.958;2023-01-04T03:22:33;4.70;99.90
5592;DHT22;2818;49.790;9.958;2023-01-04T03:25:26;4.70;99.90
5592;DHT22;2818;49.790;9.958;2023-01-04T03:28:14;4.70;99.90
5592;DHT22;2818;49.790;9.958;2023-01-04T03:31:56;4.70;99.90
5592;DHT22;2818;49.790;9.958;2023-01-04T03:34:16;4.70;99.90
5592;DHT22;2818;49.790;9.958;2023-01-04T03:42:57;4.70;99.90
5592;DHT22;2818;49.790;9.958;2023-01-04T03:45:54;4.70;99.90
5592;DHT22;2818;49.790;9.958;2023-01-04T03:51:26;4.70;99.90
5592;DHT22;2818;49.790;9.958;2023-01-04T03:54:13;4.60;99.90
5592;DHT22;2818;49.790;9.958;2023-01-04T03:56:43;4.60;99.90
5592;DHT22;2818;49.790;9.958;2023-01-04T03:59:12;4.60;99.90
5592;DHT22;2818;49.790;9.958;2023-01-04T04:01:41;4.50;99.90
5592;DHT22;2818;49.790;9.958;2023-01-04T04:04:09;4.50;99.90
5592;DHT22;2818;49.790;9.958;2023-01-04T04:06:55;4.40;99.90
5592;DHT22;2818;49.790;9.958;2023-01-04T04:09:41;4.40;99.90
5592;DHT22;2818;49.790;9.958;2023-01-04T04:12:08;4.40;99.90
5592;DHT22;2818;49.790;9.958;2023-01-04T04:14:34;4.50;99.90
5592;DHT22;2818;49.790;9.958;2023-01-04T04:17:01;4.50;99.90
5592;DHT22;2818;49.790;9.958;2023-01-04T04:19:28;4.50;99.90
5592;DHT22;2818;49.790;9.958;2023-01-04T04:21:55;4.50;99.90
5592;DHT22;2818;49.790;9.958;2023-01-04T04:24:24;4.60;99.90
5592;DHT22;2818;49.790;9.958;2023-01-04T04:26:52;4.60;99.90
5592;DHT22;2818;49.790;9.958;2023-01-04T04:29:23;4.70;99.90
5592;DHT22;2818;49.790;9.958;2023-01-04T04:31:51;4.70;99.90
5592;DHT22;2818;49.790;9.958;2023-01-04T04:34:18;4.70;99.90
5592;DHT22;2818;49.790;9.958;2023-01-04T04:36:45;4.70;99.90
5592;DHT22;2818;49.790;9.958;2023-01-04T04:39:12;4.70;99.90
5592;DHT22;2818;49.790;9.958;2023-01-04T04:41:40;4.80;99.90
5592;DHT22;2818;49.790;9.958;2023-01-04T04:44:12;4.70;99.90
5592;DHT22;2818;49.790;9.958;2023-01-04T04:46:40;4.80;99.90
5592;DHT22;2818;49.790;9.958;2023-01-04T04:49:08;4.80;99.90
5592;DHT22;2818;49.790;9.958;2023-01-04T04:51:36;4.80;99.90
5592;DHT22;2818;49.790;9.958;2023-01-04T04:54:03;4.80;99.90
5592;DHT22;2818;49.790;9.958;2023-01-04T04:56:30;4.80;99.90
5592;DHT22;2818;49.790;9.958;2023-01-04T04:58:58;4.90;99.90
5592;DHT22;2818;49.790;9.958;2023-01-04T05:01:25;4.90;99.90
5592;DHT22;2818;49.790;9.958;2023-01-04T05:03:52;4.90;99.90
5592;DHT22;2818;49.790;9.958;2023-01-04T05:06:19;5.00;99.90
5592;DHT22;2818;49.790;9.958;2023-01-04T05:08:46;5.00;99.90
5592;DHT22;2818;49.790;9.958;2023-01-04T05:11:13;5.00;99.90
5592;DHT22;2818;49.790;9.958;2023-01-04T05:13:40;5.00;99.90
5592;DHT22;2818;49.790;9.958;2023-01-04T05:16:08;5.00;99.90
5592;DHT22;2818;49.790;9.958;2023-01-04T05:18:35;5.00;99.90
5592;DHT22;2818;49.790;9.958;2023-01-04T05:21:02;5.00;99.90
5592;DHT22;2818;49.790;9.958;2023-01-04T05:23:29;5.00;99.90
5592;DHT22;2818;49.790;9.958;2023-01-04T05:25:59;5.00;99.90
5592;DHT22;2818;49.790;9.958;2023-01-04T05:28:26;5.00;99.90
5592;DHT22;2818;49.790;9.958;2023-01-04T05:30:53;5.10;99.90
5592;DHT22;2818;49.790;9.958;2023-01-04T05:33:24;5.20;99.90
5592;DHT22;2818;49.790;9.958;2023-01-04T05:35:52;5.20;99.90
5592;DHT22;2818;49.790;9.958;2023-01-04T05:38:20;5.20;99.90
5592;DHT22;2818;49.790;9.958;2023-01-04T05:40:48;5.30;99.90
5592;DHT22;2818;49.790;9.958;2023-01-04T05:43:16;5.30;99.90
5592;DHT22;2818;49.790;9.958;2023-01-04T05:45:47;5.30;99.90
5592;DHT22;2818;49.790;9.958;2023-01-04T05:48:15;5.40;99.90
5592;DHT22;2818;49.790;9.958;2023-01-04T05:50:41;5.40;99.90
5592;DHT22;2818;49.790;9.958;2023-01-04T05:53:10;5.50;99.90
5592;DHT22;2818;49.790;9.958;2023-01-04T05:55:37;5.50;94.90
5592;DHT22;2818;49.790;9.958;2023-01-04T05:58:04;5.50;91.00
5592;DHT22;2818;49.790;9.958;2023-01-04T06:00:31;5.60;88.70
5592;DHT22;2818;49.790;9.958;2023-01-04T06:02:58;5.60;65.00
5592;DHT22;2818;49.790;9.958;2023-01-04T06:05:25;5.60;70.80
5592;DHT22;2818;49.790;9.958;2023-01-04T06:07:52;5.70;67.30
5592;DHT22;2818;49.790;9.958;2023-01-04T06:10:20;5.70;67.90
5592;DHT22;2818;49.790;9.958;2023-01-04T06:12:47;5.70;73.60
5592;DHT22;2818;49.790;9.958;2023-01-04T06:15:14;5.70;68.80
5592;DHT22;2818;49.790;9.958;2023-01-04T06:17:41;5.70;72.30
5592;DHT22;2818;49.790;9.958;2023-01-04T06:20:09;5.70;83.40
5592;DHT22;2818;49.790;9.958;2023-01-04T06:22:37;5.80;89.10
5592;DHT22;2818;49.790;9.958;2023-01-04T06:25:07;5.80;90.80
5592;DHT22;2818;49.790;9.958;2023-01-04T06:27:34;5.70;87.30
5592;DHT22;2818;49.790;9.958;2023-01-04T06:30:01;5.70;92.90
5592;DHT22;2818;49.790;9.958;2023-01-04T06:32:28;5.70;99.90
5592;DHT22;2818;49.790;9.958;2023-01-04T06:34:55;5.60;98.70
5592;DHT22;2818;49.790;9.958;2023-01-04T06:37:22;5.60;99.90
5592;DHT22;2818;49.790;9.958;2023-01-04T06:39:49;5.60;97.90
5592;DHT22;2818;49.790;9.958;2023-01-04T06:42:16;5.60;99.90
5592;DHT22;2818;49.790;9.958;2023-01-04T06:45:02;5.60;99.90
5592;DHT22;2818;49.790;9.958;2023-01-04T06:47:29;5.60;98.80
5592;DHT22;2818;49.790;9.958;2023-01-04T06:49:56;5.60;99.90
5592;DHT22;2818;49.790;9.958;2023-01-04T06:52:23;5.60;98.70
5592;DHT22;2818;49.790;9.958;2023-01-04T06:54:49;5.70;99.90
5592;DHT22;2818;49.790;9.958;2023-01-04T06:57:16;5.70;87.40
5592;DHT22;2818;49.790;9.958;2023-01-04T06:59:43;5.70;89.60
5592;DHT22;2818;49.790;9.958;2023-01-04T07:02:14;5.70;82.90
5592;DHT22;2818;49.790;9.958;2023-01-04T07:04:42;5.70;84.60
5592;DHT22;2818;49.790;9.958;2023-01-04T07:07:09;5.70;74.40
5592;DHT22;2818;49.790;9.958;2023-01-04T07:09:37;5.70;80.30
5592;DHT22;2818;49.790;9.958;2023-01-04T07:12:04;5.80;72.30
5592;DHT22;2818;49.790;9.958;2023-01-04T07:14:31;5.70;75.80
5592;DHT22;2818;49.790;9.958;2023-01-04T07:16:58;5.70;70.00
5592;DHT22;2818;49.790;9.958;2023-01-04T07:19:25;5.80;84.10
5592;DHT22;2818;49.790;9.958;2023-01-04T07:21:52;5.80;75.30
5592;DHT22;2818;49.790;9.958;2023-01-04T07:24:19;5.80;77.10
5592;DHT22;2818;49.790;9.958;2023-01-04T07:26:55;5.80;60.30
5592;DHT22;2818;49.790;9.958;2023-01-04T07:29:22;5.80;80.20
5592;DHT22;2818;49.790;9.958;2023-01-04T07:31:50;5.80;46.30
5592;DHT22;2818;49.790;9.958;2023-01-04T07:34:19;5.80;62.80
5592;DHT22;2818;49.790;9.958;2023-01-04T07:36:47;5.80;55.60
5592;DHT22;2818;49.790;9.958;2023-01-04T07:39:16;5.80;56.90
5592;DHT22;2818;49.790;9.958;2023-01-04T07:41:44;5.80;48.40
5592;DHT22;2818;49.790;9.958;2023-01-04T07:44:11;5.90;49.40
5592;DHT22;2818;49.790;9.958;2023-01-04T07:46:39;5.80;23.80
5592;DHT22;2818;49.790;9.958;2023-01-04T07:49:10;5.90;28.10
5592;DHT22;2818;49.790;9.958;2023-01-04T07:51:43;5.90;23.60
5592;DHT22;2818;49.790;9.958;2023-01-04T07:54:11;5.90;20.20
5592;DHT22;2818;49.790;9.958;2023-01-04T07:56:38;5.90;2.80
5592;DHT22;2818;49.790;9.958;2023-01-04T07:59:07;6.00;1.00
5592;DHT22;2818;49.790;9.958;2023-01-04T08:01:34;6.00;1.00
5592;DHT22;2818;49.790;9.958;2023-01-04T08:04:08;6.00;1.00
5592;DHT22;2818;49.790;9.958;2023-01-04T08:06:36;6.00;1.00
5592;DHT22;2818;49.790;9.958;2023-01-04T08:09:04;6.10;1.00
5592;DHT22;2818;49.790;9.958;2023-01-04T08:11:32;6.10;1.00
5592;DHT22;2818;49.790;9.958;2023-01-04T08:13:59;6.10;1.00
5592;DHT22;2818;49.790;9.958;2023-01-04T08:16:33;6.10;1.00
5592;DHT22;2818;49.790;9.958;2023-01-04T08:19:06;6.20;1.00
5592;DHT22;2818;49.790;9.958;2023-01-04T08:21:34;6.20;1.00
5592;DHT22;2818;49.790;9.958;2023-01-04T08:24:02;6.30;1.00
5592;DHT22;2818;49.790;9.958;2023-01-04T08:26:30;6.40;1.00
5592;DHT22;2818;49.790;9.958;2023-01-04T08:28:57;6.50;1.00
5592;DHT22;2818;49.790;9.958;2023-01-04T08:31:27;6.60;1.00
5592;DHT22;2818;49.790;9.958;2023-01-04T08:33:56;6.70;1.00
5592;DHT22;2818;49.790;9.958;2023-01-04T08:36:28;6.80;1.00
5592;DHT22;2818;49.790;9.958;2023-01-04T08:38:58;6.80;1.00
5592;DHT22;2818;49.790;9.958;2023-01-04T08:41:28;6.90;1.00
5592;DHT22;2818;49.790;9.958;2023-01-04T08:44:19;6.90;1.00
5592;DHT22;2818;49.790;9.958;2023-01-04T08:46:47;6.90;1.00
5592;DHT22;2818;49.790;9.958;2023-01-04T08:49:14;7.00;1.00
5592;DHT22;2818;49.790;9.958;2023-01-04T08:51:42;7.00;1.00
5592;DHT22;2818;49.790;9.958;2023-01-04T08:54:09;7.00;1.00
5592;DHT22;2818;49.790;9.958;2023-01-04T08:56:36;7.00;1.00
5592;DHT22;2818;49.790;9.958;2023-01-04T08:59:04;7.00;1.00
5592;DHT22;2818;49.790;9.958;2023-01-04T09:01:33;7.00;1.00
5592;DHT22;2818;49.790;9.958;2023-01-04T09:04:00;7.10;1.00
5592;DHT22;2818;49.790;9.958;2023-01-04T09:06:28;7.10;1.00
5592;DHT22;2818;49.790;9.958;2023-01-04T09:08:56;7.10;1.00
5592;DHT22;2818;49.790;9.958;2023-01-04T09:11:23;7.10;1.00
5592;DHT22;2818;49.790;9.958;2023-01-04T09:13:58;7.10;1.00
5592;DHT22;2818;49.790;9.958;2023-01-04T09:16:34;7.10;1.00
5592;DHT22;2818;49.790;9.958;2023-01-04T09:19:03;7.10;1.00
5592;DHT22;2818;49.790;9.958;2023-01-04T09:21:30;7.20;1.00
5592;DHT22;2818;49.790;9.958;2023-01-04T09:23:57;7.20;1.00
5592;DHT22;2818;49.790;9.958;2023-01-04T09:26:25;7.20;1.00
5592;DHT22;2818;49.790;9.958;2023-01-04T09:28:53;7.20;1.00
5592;DHT22;2818;49.790;9.958;2023-01-04T09:31:23;7.20;1.00
5592;DHT22;2818;49.790;9.958;2023-01-04T09:33:50;7.30;1.00
5592;DHT22;2818;49.790;9.958;2023-01-04T09:36:38;7.30;1.00
5592;DHT22;2818;49.790;9.958;2023-01-04T09:39:05;7.30;1.00
5592;DHT22;2818;49.790;9.958;2023-01-04T09:41:35;7.30;1.00
5592;DHT22;2818;49.790;9.958;2023-01-04T09:44:17;7.30;1.00
5592;DHT22;2818;49.790;9.958;2023-01-04T09:46:49;7.40;1.00
5592;DHT22;2818;49.790;9.958;2023-01-04T09:49:29;7.40;1.00
5592;DHT22;2818;49.790;9.958;2023-01-04T09:52:15;7.40;1.00
5592;DHT22;2818;49.790;9.958;2023-01-04T10:00:11;7.50;1.00
5592;DHT22;2818;49.790;9.958;2023-01-04T10:02:41;7.50;1.00
5592;DHT22;2818;49.790;9.958;2023-01-04T10:05:17;7.60;1.00
5592;DHT22;2818;49.790;9.958;2023-01-04T10:07:45;7.60;1.00
5592;DHT22;2818;49.790;9.958;2023-01-04T10:10:19;7.60;1.00
5592;DHT22;2818;49.790;9.958;2023-01-04T10:21:09;7.70;1.00
5592;DHT22;2818;49.790;9.958;2023-01-04T10:26:46;7.70;1.00
5592;DHT22;2818;49.790;9.958;2023-01-04T10:29:38;7.70;1.00
5592;DHT22;2818;49.790;9.958;2023-01-04T10:34:41;7.70;1.00
5592;DHT22;2818;49.790;9.958;2023-01-04T10:37:24;7.80;1.00
5592;DHT22;2818;49.790;9.958;2023-01-04T10:39:54;7.80;1.00
5592;DHT22;2818;49.790;9.958;2023-01-04T10:42:44;7.80;1.00
5592;DHT22;2818;49.790;9.958;2023-01-04T10:45:21;7.80;1.00
5592;DHT22;2818;49.790;9.958;2023-01-04T10:50:57;7.90;1.00
5592;DHT22;2818;49.790;9.958;2023-01-04T10:56:29;8.00;1.00
5592;DHT22;2818;49.790;9.958;2023-01-04T10:59:15;8.10;1.00
5592;DHT22;2818;49.790;9.958;2023-01-04T11:01:52;8.20;1.00
5592;DHT22;2818;49.790;9.958;2023-01-04T11:05:04;8.30;1.00
5592;DHT22;2818;49.790;9.958;2023-01-04T11:07:38;8.40;1.00
5592;DHT22;2818;49.790;9.958;2023-01-04T11:10:14;8.40;1.00
5592;DHT22;2818;49.790;9.958;2023-01-04T11:12:44;8.40;1.00
5592;DHT22;2818;49.790;9.958;2023-01-04T11:15:11;8.40;1.00
5592;DHT22;2818;49.790;9.958;2023-01-04T11:17:40;8.40;1.00
5592;DHT22;2818;49.790;9.958;2023-01-04T11:20:08;8.50;1.00
5592;DHT22;2818;49.790;9.958;2023-01-04T11:25:11;8.50;1.00
5592;DHT22;2818;49.790;9.958;2023-01-04T11:33:58;8.70;1.00
5592;DHT22;2818;49.790;9.958;2023-01-04T11:36:41;8.70;1.00
5592;DHT22;2818;49.790;9.958;2023-01-04T11:39:22;8.80;1.00
5592;DHT22;2818;49.790;9.958;2023-01-04T11:42:20;8.80;1.00
5592;DHT22;2818;49.790;9.958;2023-01-04T11:45:16;8.80;1.00
5592;DHT22;2818;49.790;9.958;2023-01-04T11:47:48;8.70;1.00
5592;DHT22;2818;49.790;9.958;2023-01-04T11:50:41;8.70;1.00
5592;DHT22;2818;49.790;9.958;2023-01-04T11:53:34;8.60;1.00
5592;DHT22;2818;49.790;9.958;2023-01-04T11:56:14;8.60;1.00
5592;DHT22;2818;49.790;9.958;2023-01-04T11:58:44;8.50;1.00
5592;DHT22;2818;49.790;9.958;2023-01-04T12:01:22;8.50;1.00
5592;DHT22;2818;49.790;9.958;2023-01-04T12:03:50;8.50;1.00
5592;DHT22;2818;49.790;9.958;2023-01-04T12:06:30;8.50;1.00
5592;DHT22;2818;49.790;9.958;2023-01-04T12:08:58;8.40;1.00
5592;DHT22;2818;49.790;9.958;2023-01-04T12:11:33;8.50;1.00
5592;DHT22;2818;49.790;9.958;2023-01-04T12:14:02;8.50;1.00
5592;DHT22;2818;49.790;9.958;2023-01-04T12:16:46;8.40;1.00
5592;DHT22;2818;49.790;9.958;2023-01-04T12:19:16;8.40;1.00
5592;DHT22;2818;49.790;9.958;2023-01-04T12:21:55;8.40;1.00
5592;DHT22;2818;49.790;9.958;2023-01-04T12:24:28;8.40;1.00
5592;DHT22;2818;49.790;9.958;2023-01-04T12:26:57;8.50;1.00
5592;DHT22;2818;49.790;9.958;2023-01-04T12:30:05;8.50;1.00
5592;DHT22;2818;49.790;9.958;2023-01-04T12:34:53;8.60;1.00
5592;DHT22;2818;49.790;9.958;2023-01-04T12:37:49;8.70;1.00
5592;DHT22;2818;49.790;9.958;2023-01-04T12:45:45;8.70;3.40
5592;DHT22;2818;49.790;9.958;2023-01-04T12:48:33;8.70;7.60
5592;DHT22;2818;49.790;9.958;2023-01-04T12:51:24;8.60;15.40
5592;DHT22;2818;49.790;9.958;2023-01-04T12:54:02;8.60;21.00
5592;DHT22;2818;49.790;9.958;2023-01-04T12:57:19;8.60;26.60
5592;DHT22;2818;49.790;9.958;2023-01-04T13:02:35;8.60;33.70
5592;DHT22;2818;49.790;9.958;2023-01-04T13:08:12;8.60;45.50
5592;DHT22;2818;49.790;9.958;2023-01-04T13:10:46;8.60;48.60
5592;DHT22;2818;49.790;9.958;2023-01-04T13:18:49;8.70;46.20
5592;DHT22;2818;49.790;9.958;2023-01-04T13:21:26;8.70;46.80
5592;DHT22;2818;49.790;9.958;2023-01-04T13:26:44;8.70;39.20
5592;DHT22;2818;49.790;9.958;2023-01-04T13:29:24;8.80;35.50
5592;DHT22;2818;49.790;9.958;2023-01-04T13:32:00;8.80;30.70
5592;DHT22;2818;49.790;9.958;2023-01-04T13:34:34;8.80;29.70
5592;DHT22;2818;49.790;9.958;2023-01-04T13:39:43;8.90;27.80
5592;DHT22;2818;49.790;9.958;2023-01-04T13:42:21;8.90;13.20
5592;DHT22;2818;49.790;9.958;2023-01-04T13:47:45;9.00;5.60
5592;DHT22;2818;49.790;9.958;2023-01-04T13:52:52;9.10;4.30
5592;DHT22;2818;49.790;9.958;2023-01-04T13:55:37;9.10;1.90
5592;DHT22;2818;49.790;9.958;2023-01-04T13:58:13;9.10;6.30
5592;DHT22;2818;49.790;9.958;2023-01-04T14:00:48;9.10;43.60
5592;DHT22;2818;49.790;9.958;2023-01-04T14:05:48;9.00;99.90
5592;DHT22;2818;49.790;9.958;2023-01-04T14:11:18;8.80;99.90
5592;DHT22;2818;49.790;9.958;2023-01-04T14:19:46;8.70;99.90
5592;DHT22;2818;49.790;9.958;2023-01-04T14:24:48;8.60;99.90
5592;DHT22;2818;49.790;9.958;2023-01-04T14:32:58;8.60;99.90
5592;DHT22;2818;49.790;9.958;2023-01-04T14:35:26;8.60;99.90
5592;DHT22;2818;49.790;9.958;2023-01-04T14:37:56;8.60;99.90
5592;DHT22;2818;49.790;9.958;2023-01-04T14:40:29;8.60;99.90
5592;DHT22;2818;49.790;9.958;2023-01-04T14:42:59;8.60;99.90
5592;DHT22;2818;49.790;9.958;2023-01-04T14:45:26;8.60;99.90
5592;DHT22;2818;49.790;9.958;2023-01-04T14:47:52;8.60;99.90
5592;DHT22;2818;49.790;9.958;2023-01-04T14:50:20;8.50;99.90
5592;DHT22;2818;49.790;9.958;2023-01-04T14:52:51;8.60;99.90
5592;DHT22;2818;49.790;9.958;2023-01-04T14:55:18;8.60;99.90
5592;DHT22;2818;49.790;9.958;2023-01-04T14:57:45;8.60;99.90
5592;DHT22;2818;49.790;9.958;2023-01-04T15:00:14;8.60;99.90
5592;DHT22;2818;49.790;9.958;2023-01-04T15:02:45;8.60;99.90
5592;DHT22;2818;49.790;9.958;2023-01-04T15:05:17;8.60;99.90
5592;DHT22;2818;49.790;9.958;2023-01-04T15:07:46;8.60;99.90
5592;DHT22;2818;49.790;9.958;2023-01-04T15:10:27;8.60;99.90
5592;DHT22;2818;49.790;9.958;2023-01-04T15:12:55;8.60;99.90
5592;DHT22;2818;49.790;9.958;2023-01-04T15:15:24;8.60;99.90
5592;DHT22;2818;49.790;9.958;2023-01-04T15:17:51;8.60;99.90
5592;DHT22;2818;49.790;9.958;2023-01-04T15:20:18;8.70;99.90
5592;DHT22;2818;49.790;9.958;2023-01-04T15:22:45;8.60;99.90
5592;DHT22;2818;49.790;9.958;2023-01-04T15:25:12;8.60;99.90
5592;DHT22;2818;49.790;9.958;2023-01-04T15:27:39;8.60;99.90
5592;DHT22;2818;49.790;9.958;2023-01-04T15:30:10;8.50;99.90
5592;DHT22;2818;49.790;9.958;2023-01-04T15:32:38;8.50;99.90
5592;DHT22;2818;49.790;9.958;2023-01-04T15:35:06;8.50;99.90
5592;DHT22;2818;49.790;9.958;2023-01-04T15:37:33;8.50;99.90
5592;DHT22;2818;49.790;9.958;2023-01-04T15:40:00;8.50;99.90
5592;DHT22;2818;49.790;9.958;2023-01-04T15:42:29;8.50;99.90
5592;DHT22;2818;49.790;9.958;2023-01-04T15:45:14;8.50;99.90
5592;DHT22;2818;49.790;9.958;2023-01-04T15:47:41;8.60;99.90
5592;DHT22;2818;49.790;9.958;2023-01-04T15:50:08;8.50;99.90
5592;DHT22;2818;49.790;9.958;2023-01-04T15:52:35;8.50;99.90
5592;DHT22;2818;49.790;9.958;2023-01-04T15:55:02;8.50;99.90
5592;DHT22;2818;49.790;9.958;2023-01-04T15:57:29;8.50;99.90
5592;DHT22;2818;49.790;9.958;2023-01-04T15:59:56;8.50;99.90
5592;DHT22;2818;49.790;9.958;2023-01-04T16:02:23;8.50;99.90
5592;DHT22;2818;49.790;9.958;2023-01-04T16:04:50;8.50;99.90
5592;DHT22;2818;49.790;9.958;2023-01-04T16:07:17;8.50;99.90
5592;DHT22;2818;49.790;9.958;2023-01-04T16:09:44;8.50;99.90
5592;DHT22;2818;49.790;9.958;2023-01-04T16:12:11;8.50;99.90
5592;DHT22;2818;49.790;9.958;2023-01-04T16:14:57;8.50;99.90
5592;DHT22;2818;49.790;9.958;2023-01-04T16:17:25;8.60;99.90
5592;DHT22;2818;49.790;9.958;2023-01-04T16:19:52;8.50;99.90
5592;DHT22;2818;49.790;9.958;2023-01-04T16:22:18;8.50;99.90
5592;DHT22;2818;49.790;9.958;2023-01-04T16:24:45;8.50;99.90
5592;DHT22;2818;49.790;9.958;2023-01-04T16:27:33;8.50;99.90
5592;DHT22;2818;49.790;9.958;2023-01-04T16:30:02;8.50;99.90
5592;DHT22;2818;49.790;9.958;2023-01-04T16:32:29;8.60;99.90
5592;DHT22;2818;49.790;9.958;2023-01-04T16:34:56;8.50;99.90
5592;DHT22;2818;49.790;9.958;2023-01-04T16:37:27;8.50;99.90
5592;DHT22;2818;49.790;9.958;2023-01-04T16:39:54;8.50;99.90
5592;DHT22;2818;49.790;9.958;2023-01-04T16:42:37;8.50;99.90
5592;DHT22;2818;49.790;9.958;2023-01-04T16:45:06;8.50;99.90
5592;DHT22;2818;49.790;9.958;2023-01-04T16:47:42;8.50;99.90
5592;DHT22;2818;49.790;9.958;2023-01-04T16:50:10;8.60;99.90
5592;DHT22;2818;49.790;9.958;2023-01-04T16:52:38;8.60;99.90
5592;DHT22;2818;49.790;9.958;2023-01-04T16:55:06;8.60;99.90
5592;DHT22;2818;49.790;9.958;2023-01-04T16:57:33;8.60;99.90
5592;DHT22;2818;49.790;9.958;2023-01-04T17:00:00;8.60;99.90
5592;DHT22;2818;49.790;9.958;2023-01-04T17:02:27;8.70;99.90
5592;DHT22;2818;49.790;9.958;2023-01-04T17:04:54;8.70;99.90
5592;DHT22;2818;49.790;9.958;2023-01-04T17:07:25;8.80;99.90
5592;DHT22;2818;49.790;9.958;2023-01-04T17:09:59;8.80;99.90
5592;DHT22;2818;49.790;9.958;2023-01-04T17:12:27;8.80;99.90
5592;DHT22;2818;49.790;9.958;2023-01-04T17:15:14;8.80;99.90
5592;DHT22;2818;49.790;9.958;2023-01-04T17:18:01;8.80;99.90
5592;DHT22;2818;49.790;9.958;2023-01-04T17:20:28;8.90;99.90
5592;DHT22;2818;49.790;9.958;2023-01-04T17:22:55;8.90;99.90
5592;DHT22;2818;49.790;9.958;2023-01-04T17:25:22;8.90;99.90
5592;DHT22;2818;49.790;9.958;2023-01-04T17:27:49;8.90;99.90
5592;DHT22;2818;49.790;9.958;2023-01-04T17:30:16;9.00;99.90
5592;DHT22;2818;49.790;9.958;2023-01-04T17:32:42;9.00;99.90
5592;DHT22;2818;49.790;9.958;2023-01-04T17:35:09;9.00;99.90
5592;DHT22;2818;49.790;9.958;2023-01-04T17:37:36;9.10;99.90
5592;DHT22;2818;49.790;9.958;2023-01-04T17:40:03;9.10;99.90
5592;DHT22;2818;49.790;9.958;2023-01-04T17:42:33;9.10;99.90
5592;DHT22;2818;49.790;9.958;2023-01-04T17:45:00;9.10;99.90
5592;DHT22;2818;49.790;9.958;2023-01-04T17:47:27;9.10;99.90
5592;DHT22;2818;49.790;9.958;2023-01-04T17:49:54;9.10;99.90
5592;DHT22;2818;49.790;9.958;2023-01-04T17:52:21;9.20;99.90
5592;DHT22;2818;49.790;9.958;2023-01-04T17:54:57;9.20;99.90
5592;DHT22;2818;49.790;9.958;2023-01-04T17:57:23;9.20;99.90
5592;DHT22;2818;49.790;9.958;2023-01-04T17:59:50;9.20;99.90
5592;DHT22;2818;49.790;9.958;2023-01-04T18:02:17;9.20;99.90
5592;DHT22;2818;49.790;9.958;2023-01-04T18:04:44;9.30;99.90
5592;DHT22;2818;49.790;9.958;2023-01-04T18:07:11;9.30;99.90
5592;DHT22;2818;49.790;9.958;2023-01-04T18:09:43;9.30;99.90
5592;DHT22;2818;49.790;9.958;2023-01-04T18:12:10;9.30;99.90
5592;DHT22;2818;49.790;9.958;2023-01-04T18:14:37;9.30;99.90
5592;DHT22;2818;49.790;9.958;2023-01-04T18:17:04;9.30;99.90
5592;DHT22;2818;49.790;9.958;2023-01-04T18:19:31;9.30;99.90
5592;DHT22;2818;49.790;9.958;2023-01-04T18:21:58;9.40;99.90
5592;DHT22;2818;49.790;9.958;2023-01-04T18:24:25;9.40;99.90
5592;DHT22;2818;49.790;9.958;2023-01-04T18:27:03;9.50;99.90
5592;DHT22;2818;49.790;9.958;2023-01-04T18:29:51;9.50;99.90
5592;DHT22;2818;49.790;9.958;2023-01-04T18:32:18;9.50;99.90
5592;DHT22;2818;49.790;9.958;2023-01-04T18:34:46;9.60;99.90
5592;DHT22;2818;49.790;9.958;2023-01-04T18:37:13;9.60;99.90
5592;DHT22;2818;49.790;9.958;2023-01-04T18:39:42;9.60;99.90
5592;DHT22;2818;49.790;9.958;2023-01-04T18:42:08;9.60;99.90
5592;DHT22;2818;49.790;9.958;2023-01-04T18:44:35;9.70;99.90
5592;DHT22;2818;49.790;9.958;2023-01-04T18:47:11;9.70;99.90
5592;DHT22;2818;49.790;9.958;2023-01-04T18:49:38;9.70;99.90
5592;DHT22;2818;49.790;9.958;2023-01-04T18:52:05;9.70;99.90
5592;DHT22;2818;49.790;9.958;2023-01-04T18:54:32;9.70;99.90
5592;DHT22;2818;49.790;9.958;2023-01-04T18:56:59;9.70;99.90
5592;DHT22;2818;49.790;9.958;2023-01-04T18:59:30;9.80;99.90
5592;DHT22;2818;49.790;9.958;2023-01-04T19:01:58;9.80;99.90